createdAt,value
2017-10-23T00:00:12.697Z,24.13
2017-10-23T00:02:39.494Z,27.10
2017-10-23T00:05:06.275Z,24.63
2017-10-23T00:07:33.061Z,29.00
2017-10-23T00:09:59.890Z,22.40
2017-10-23T00:12:29.234Z,26.23
2017-10-23T00:14:56.911Z,21.47
2017-10-23T00:17:23.749Z,24.90
2017-10-23T00:19:51.386Z,22.83
2017-10-23T00:22:18.193Z,22.77
2017-10-23T00:24:45.009Z,22.07
2017-10-23T00:27:11.831Z,26.60
2017-10-23T00:29:38.662Z,25.43
2017-10-23T00:32:05.539Z,29.07
2017-10-23T00:34:34.223Z,23.10
2017-10-23T00:37:01.029Z,26.90
2017-10-23T00:39:27.838Z,24.37
2017-10-23T00:41:57.093Z,25.03
2017-10-23T00:44:24.056Z,24.83
2017-10-23T00:46:50.862Z,28.47
2017-10-23T00:49:17.648Z,25.97
2017-10-23T00:51:44.429Z,21.90
2017-10-23T00:54:11.244Z,33.10
2017-10-23T00:56:38.176Z,24.53
2017-10-23T00:59:05.107Z,27.13
2017-10-23T01:01:32.007Z,27.03
2017-10-23T01:03:58.831Z,25.80
2017-10-23T01:06:25.618Z,23.00
2017-10-23T01:08:52.436Z,30.00
2017-10-23T01:11:19.243Z,24.87
2017-10-23T01:13:46.045Z,26.10
2017-10-23T01:16:12.881Z,29.63
2017-10-23T01:18:45.826Z,30.10
2017-10-23T01:21:12.641Z,24.70
2017-10-23T01:23:39.533Z,23.37
2017-10-23T01:26:06.409Z,25.00
2017-10-23T01:28:33.330Z,22.00
2017-10-23T01:31:00.229Z,23.70
2017-10-23T01:33:27.445Z,26.93
2017-10-23T01:35:54.233Z,25.10
2017-10-23T01:38:21.134Z,26.03
2017-10-23T01:40:48.040Z,24.50
2017-10-23T01:43:14.866Z,27.87
2017-10-23T01:45:41.770Z,23.63
2017-10-23T01:48:08.734Z,26.73
2017-10-23T01:50:35.563Z,21.87
2017-10-23T01:53:03.223Z,24.00
2017-10-23T01:55:30.115Z,25.80
2017-10-23T01:57:56.914Z,21.70
2017-10-23T02:00:23.759Z,23.03
2017-10-23T02:02:55.113Z,23.30
2017-10-23T02:05:21.922Z,27.00
2017-10-23T02:07:48.804Z,27.30
2017-10-23T02:10:18.304Z,23.60
2017-10-23T02:12:45.143Z,23.43
2017-10-23T02:15:12.024Z,24.20
2017-10-23T02:17:39.761Z,24.43
2017-10-23T02:20:06.579Z,26.73
2017-10-23T02:22:33.373Z,25.60
2017-10-23T02:25:00.338Z,22.03
2017-10-23T02:27:27.162Z,27.13
2017-10-23T02:29:53.962Z,31.23
2017-10-23T02:34:52.207Z,27.67
2017-10-23T02:37:19.037Z,29.07
2017-10-23T02:39:45.862Z,25.33
2017-10-23T02:42:12.666Z,26.13
2017-10-23T02:44:39.461Z,26.83
2017-10-23T02:47:07.186Z,23.17
2017-10-23T02:49:34.005Z,22.50
2017-10-23T02:52:00.855Z,28.70
2017-10-23T02:54:28.659Z,23.17
2017-10-23T02:56:55.461Z,24.73
2017-10-23T02:59:22.257Z,25.73
2017-10-23T03:01:49.091Z,24.40
2017-10-23T03:04:15.940Z,24.33
2017-10-23T03:06:43.750Z,22.30
2017-10-23T03:09:13.200Z,24.50
2017-10-23T03:11:40.124Z,21.27
2017-10-23T03:14:07.088Z,24.17
2017-10-23T03:16:34.026Z,23.67
2017-10-23T03:19:00.903Z,23.23
2017-10-23T03:21:27.796Z,24.40
2017-10-23T03:23:57.309Z,23.53
2017-10-23T03:26:24.238Z,23.80
2017-10-23T03:28:51.203Z,24.50
2017-10-23T03:31:18.477Z,25.23
2017-10-23T03:33:45.447Z,21.03
2017-10-23T03:36:12.712Z,27.90
2017-10-23T03:38:40.541Z,25.77
2017-10-23T03:41:07.434Z,25.10
2017-10-23T03:43:42.047Z,26.97
2017-10-23T03:46:09.047Z,25.70
2017-10-23T03:48:36.060Z,23.37
2017-10-23T03:51:05.443Z,22.73
2017-10-23T03:53:32.369Z,29.53
2017-10-23T03:55:59.333Z,25.80
2017-10-23T03:58:26.621Z,26.53
2017-10-23T04:00:53.666Z,24.63
2017-10-23T04:03:20.612Z,23.80
2017-10-23T04:05:47.678Z,25.33
2017-10-23T04:08:14.763Z,24.00
2017-10-23T04:10:41.751Z,25.50
2017-10-23T04:13:08.821Z,27.07
2017-10-23T04:15:35.721Z,25.37
2017-10-23T04:18:02.740Z,31.83
2017-10-23T04:20:30.520Z,27.67
2017-10-23T04:22:57.533Z,29.10
2017-10-23T04:25:24.612Z,24.63
2017-10-23T04:27:51.926Z,26.20
2017-10-23T04:30:18.854Z,34.90
2017-10-23T04:32:45.725Z,26.37
2017-10-23T04:35:12.601Z,30.37
2017-10-23T04:37:39.435Z,33.60
2017-10-23T04:40:06.260Z,30.30
2017-10-23T04:42:35.659Z,27.77
2017-10-23T04:45:02.549Z,23.60
2017-10-23T04:47:29.404Z,25.83
2017-10-23T04:49:56.361Z,28.13
2017-10-23T04:52:23.295Z,26.50
2017-10-23T04:54:51.266Z,32.47
2017-10-23T04:57:22.092Z,32.70
2017-10-23T04:59:48.893Z,29.60
2017-10-23T05:02:15.713Z,27.50
2017-10-23T05:04:43.688Z,21.27
2017-10-23T05:07:10.614Z,27.77
2017-10-23T05:09:37.558Z,30.70
2017-10-23T05:12:08.043Z,35.70
2017-10-23T05:14:34.988Z,26.47
2017-10-23T05:17:01.869Z,32.30
2017-10-23T05:19:29.844Z,28.80
2017-10-23T05:21:56.743Z,29.20
2017-10-23T05:24:23.621Z,29.73
2017-10-23T05:26:51.329Z,34.40
2017-10-23T05:29:18.362Z,28.80
2017-10-23T05:31:45.233Z,31.17
2017-10-23T05:34:15.577Z,27.37
2017-10-23T05:36:42.472Z,24.57
2017-10-23T05:39:09.371Z,30.77
2017-10-23T05:41:36.337Z,25.57
2017-10-23T05:44:03.504Z,27.30
2017-10-23T05:46:30.362Z,26.50
2017-10-23T05:48:58.467Z,31.37
2017-10-23T05:51:25.321Z,32.43
2017-10-23T05:53:52.160Z,26.27
2017-10-23T05:56:23.799Z,32.23
2017-10-23T05:58:50.627Z,28.30
2017-10-23T06:01:17.475Z,29.70
2017-10-23T06:03:45.115Z,25.43
2017-10-23T06:06:12.026Z,40.90
2017-10-23T06:08:38.841Z,27.43
2017-10-23T06:11:07.470Z,26.03
2017-10-23T06:13:34.454Z,28.50
2017-10-23T06:16:01.324Z,30.53
2017-10-23T06:18:28.574Z,28.30
2017-10-23T06:20:55.546Z,27.03
2017-10-23T06:23:22.513Z,24.53
2017-10-23T06:25:51.360Z,29.27
2017-10-23T06:28:18.319Z,31.90
2017-10-23T06:30:45.229Z,28.63
2017-10-23T06:33:12.264Z,28.30
2017-10-23T06:35:39.195Z,30.07
2017-10-23T06:38:06.102Z,24.03
2017-10-23T06:40:33.053Z,23.50
2017-10-23T06:43:03.056Z,23.93
2017-10-23T06:45:29.939Z,28.70
2017-10-23T06:47:56.931Z,31.00
2017-10-23T06:50:23.866Z,31.17
2017-10-23T06:52:50.743Z,23.17
2017-10-23T06:55:17.681Z,24.10
2017-10-23T06:57:47.838Z,25.60
2017-10-23T07:00:14.762Z,24.70
2017-10-23T07:02:41.742Z,24.43
2017-10-23T07:05:08.725Z,31.33
2017-10-23T07:07:35.638Z,23.10
2017-10-23T07:10:02.661Z,27.30
2017-10-23T07:12:29.598Z,28.47
2017-10-23T07:14:56.502Z,23.90
2017-10-23T07:17:23.446Z,26.50
2017-10-23T07:19:50.361Z,24.20
2017-10-23T07:22:18.142Z,29.40
2017-10-23T07:24:45.075Z,25.93
2017-10-23T07:27:11.937Z,20.63
2017-10-23T07:29:38.820Z,32.47
2017-10-23T07:32:05.715Z,26.80
2017-10-23T07:34:32.539Z,30.30
2017-10-23T15:23:28.467Z,22.27
2017-10-23T15:26:04.453Z,20.93
2017-10-23T15:31:38.280Z,20.23
2017-10-23T15:34:13.650Z,22.67
2017-10-23T15:36:48.742Z,30.13
2017-10-23T15:39:28.519Z,36.03
2017-10-23T15:42:03.269Z,26.37
2017-10-23T15:44:39.994Z,39.33
2017-10-23T15:47:14.872Z,53.53
2017-10-23T15:49:50.488Z,27.80
2017-10-23T15:52:27.279Z,51.03
2017-10-23T15:55:03.944Z,37.07
2017-10-23T15:57:38.867Z,34.47
2017-10-23T16:00:14.587Z,26.27
2017-10-23T16:02:51.552Z,21.57
2017-10-23T16:05:30.239Z,22.93
2017-10-23T16:08:06.080Z,20.47
2017-10-23T16:10:44.200Z,20.10
2017-10-23T16:13:21.516Z,16.80
2017-10-23T16:15:57.215Z,16.57
2017-10-23T16:18:33.318Z,18.30
2017-10-23T16:21:09.844Z,21.43
2017-10-23T16:23:45.146Z,16.77
2017-10-23T16:26:23.796Z,22.13
2017-10-23T16:28:58.696Z,24.80
2017-10-23T16:31:33.371Z,24.67
2017-10-23T16:34:07.930Z,19.27
2017-10-23T16:36:44.246Z,19.37
2017-10-23T16:39:19.466Z,20.77
2017-10-23T16:41:56.600Z,20.37
2017-10-23T16:44:31.625Z,20.87
2017-10-23T16:47:06.759Z,17.10
2017-10-23T16:49:42.066Z,18.17
2017-10-23T16:52:17.614Z,19.40
2017-10-23T16:54:53.364Z,22.80
2017-10-23T16:57:29.146Z,19.90
2017-10-23T17:00:04.186Z,22.90
2017-10-23T17:02:39.402Z,19.43
2017-10-23T17:05:06.215Z,26.50
2017-10-23T17:07:45.874Z,24.77
2017-10-23T17:10:21.241Z,16.00
2017-10-23T17:12:57.784Z,18.10
2017-10-23T17:15:32.803Z,25.63
2017-10-23T17:18:08.495Z,24.63
2017-10-23T17:20:45.166Z,23.83
2017-10-23T17:23:12.116Z,21.80
2017-10-23T17:25:47.075Z,25.23
2017-10-23T17:28:24.065Z,25.63
2017-10-23T17:30:59.390Z,27.60
2017-10-23T17:33:36.044Z,25.30
2017-10-23T17:36:10.641Z,24.37
2017-10-23T17:38:45.404Z,24.43
2017-10-23T17:41:22.662Z,25.53
2017-10-23T17:43:57.215Z,22.60
2017-10-23T17:46:33.677Z,20.30
2017-10-23T17:49:11.620Z,22.33
2017-10-23T17:51:46.603Z,23.67
2017-10-23T17:54:22.937Z,21.13
2017-10-23T17:56:57.957Z,23.07
2017-10-23T17:59:35.324Z,21.50
2017-10-23T18:02:10.253Z,27.57
2017-10-23T18:04:47.426Z,26.83
2017-10-23T18:07:22.767Z,28.70
2017-10-23T18:09:58.250Z,25.37
2017-10-23T18:12:32.825Z,17.17
2017-10-23T18:15:09.084Z,35.43
2017-10-23T18:17:44.007Z,30.20
2017-10-23T18:20:18.707Z,25.80
2017-10-23T18:22:53.369Z,29.20
2017-10-23T18:25:29.989Z,22.00
2017-10-23T18:28:04.464Z,23.27
2017-10-23T18:30:41.345Z,22.30
2017-10-23T18:33:20.154Z,25.53
2017-10-23T18:35:47.160Z,20.63
2017-10-23T18:38:25.178Z,29.30
2017-10-23T18:41:02.238Z,26.93
2017-10-23T18:43:37.549Z,23.87
2017-10-23T18:46:05.308Z,22.93
2017-10-23T18:48:32.088Z,28.20
2017-10-23T18:51:10.504Z,23.27
2017-10-23T18:53:44.988Z,24.73
2017-10-23T18:56:21.122Z,25.73
2017-10-23T18:59:01.108Z,34.77
2017-10-23T19:01:41.746Z,27.67
2017-10-23T19:04:09.533Z,29.97
2017-10-23T19:06:50.580Z,23.37
2017-10-23T19:09:26.320Z,22.93
2017-10-23T19:12:00.989Z,28.60
2017-10-23T19:14:31.618Z,27.97
2017-10-23T19:17:09.950Z,30.53
2017-10-23T19:19:44.701Z,29.87
2017-10-23T19:22:11.482Z,30.83
2017-10-23T19:24:38.269Z,33.53
2017-10-23T19:27:27.645Z,39.23
2017-10-23T19:30:02.361Z,36.33
2017-10-23T19:32:38.244Z,34.30
2017-10-23T19:35:15.409Z,31.80
2017-10-23T19:37:50.405Z,28.53
2017-10-23T19:40:25.597Z,33.17
2017-10-23T19:43:06.440Z,34.83
2017-10-23T19:45:40.963Z,34.03
2017-10-23T19:48:21.651Z,29.53
2017-10-23T19:50:59.034Z,27.67
2017-10-23T19:53:40.628Z,28.33
2017-10-23T19:56:24.425Z,29.20
2017-10-23T19:59:05.469Z,35.83
2017-10-23T20:01:42.605Z,30.20
2017-10-23T20:04:23.364Z,34.00
2017-10-23T20:07:03.733Z,34.97
2017-10-23T20:09:40.912Z,37.57
2017-10-23T20:12:16.283Z,35.97
2017-10-23T20:14:57.173Z,32.27
2017-10-23T20:17:39.092Z,45.13
2017-10-23T20:20:14.675Z,37.17
2017-10-23T20:22:51.326Z,33.37
2017-10-23T20:25:26.595Z,40.57
2017-10-23T20:28:01.189Z,33.47
2017-10-23T20:30:37.974Z,32.70
2017-10-23T20:33:18.526Z,36.53
2017-10-23T20:35:53.429Z,40.87
2017-10-23T20:38:34.605Z,36.90
2017-10-23T20:41:10.977Z,38.07
2017-10-23T20:43:45.703Z,38.63
2017-10-23T20:46:29.512Z,35.80
2017-10-23T20:49:10.721Z,37.03
2017-10-23T20:51:48.944Z,33.67
2017-10-23T20:54:25.552Z,37.50
2017-10-23T20:57:03.821Z,35.07
2017-10-23T20:59:40.718Z,36.43
2017-10-23T21:02:23.698Z,39.37
2017-10-23T21:04:59.664Z,31.73
2017-10-23T21:07:37.005Z,35.50
2017-10-23T21:10:20.377Z,41.37
2017-10-23T21:12:56.596Z,39.83
2017-10-23T21:15:41.451Z,42.83
2017-10-23T21:18:28.105Z,39.03
2017-10-23T21:24:02.136Z,34.33
2017-10-23T21:26:37.301Z,32.30
2017-10-23T21:29:28.894Z,38.47
2017-10-23T21:32:19.688Z,41.03
2017-10-23T21:35:04.788Z,36.07
2017-10-23T21:37:40.499Z,48.53
2017-10-23T21:40:18.020Z,47.70
2017-10-23T21:43:01.625Z,43.40
2017-10-23T21:45:44.814Z,38.00
2017-10-23T21:54:03.092Z,34.97
2017-10-23T21:56:48.139Z,45.60
2017-10-23T21:59:22.902Z,41.37
2017-10-23T22:02:05.123Z,39.23
2017-10-23T22:04:39.781Z,38.97
2017-10-23T22:10:25.782Z,40.60
2017-10-23T22:13:05.779Z,37.80
2017-10-23T22:15:48.173Z,34.03
2017-10-23T22:18:31.807Z,43.37
2017-10-23T22:24:00.201Z,39.23
2017-10-23T22:26:37.482Z,41.00
2017-10-23T22:29:19.617Z,56.37
2017-10-23T22:32:00.559Z,45.87
2017-10-23T22:34:44.161Z,38.50
2017-10-23T22:37:19.998Z,39.93
2017-10-23T22:39:58.547Z,42.87
2017-10-23T22:42:39.036Z,33.63
2017-10-23T22:45:13.851Z,42.60
2017-10-23T22:47:56.085Z,48.73
2017-10-23T22:50:36.624Z,36.40
2017-10-23T22:53:16.510Z,38.53
2017-10-23T22:55:56.794Z,38.20
2017-10-23T22:58:34.115Z,34.97
2017-10-23T23:01:16.625Z,45.33
2017-10-23T23:03:51.610Z,37.33
2017-10-23T23:06:28.751Z,43.67
2017-10-23T23:09:04.041Z,40.87
2017-10-23T23:11:40.575Z,48.27
2017-10-23T23:14:15.198Z,36.83
2017-10-23T23:16:50.775Z,37.70
2017-10-23T23:19:26.310Z,45.30
2017-10-23T23:21:53.038Z,45.83
2017-10-23T23:24:27.738Z,39.03
2017-10-23T23:27:05.313Z,41.43
2017-10-23T23:29:39.944Z,38.63
2017-10-23T23:32:15.012Z,39.40
2017-10-23T23:34:51.767Z,36.87
2017-10-23T23:37:31.258Z,47.23
2017-10-23T23:40:11.053Z,42.00
2017-10-23T23:45:38.546Z,48.30
2017-10-23T23:48:14.893Z,45.20
2017-10-23T23:50:55.352Z,56.27
2017-10-23T23:53:37.143Z,46.77
2017-10-23T23:56:11.897Z,43.57
2017-10-23T23:58:51.673Z,60.60
